Time;durP1;ratioP1;P1;durP2;ratioP2;P2;SDS_P1;SDS_P2;PMS_P1;PMS_P2;Temp;Humidity;BMP_temperature;BMP_pressure;BME280_temperature;BME280_humidity;BME280_pressure;Samples;Min_cycle;Max_cycle;Signal;HPM_P1;HPM_P2
2021/03/28 00:01:58;;;;;;;19.17;7.68;;;6.00;99.90;;;;;;4164654;28;20029;-77
2021/03/28 00:04:04;;;;;;;19.50;7.28;;;6.00;99.90;;;;;;4154022;28;20104;-77
2021/03/28 00:06:19;;;;;;;26.95;8.50;;;6.00;99.90;;;;;;4136789;28;20034;-78
2021/03/28 00:08:27;;;;;;;23.83;8.25;;;6.00;99.90;;;;;;4156086;28;20035;-77
2021/03/28 00:10:42;;;;;;;12.90;7.20;;;6.00;99.90;;;;;;4137563;28;20035;-76
2021/03/28 00:12:43;;;;;;;19.60;9.85;;;6.00;99.90;;;;;;4161060;28;20399;-77
2021/03/28 00:15:05;;;;;;;31.52;9.85;;;6.00;99.90;;;;;;4153745;28;20058;-76
2021/03/28 00:17:20;;;;;;;22.98;8.38;;;6.00;99.90;;;;;;4132574;28;20105;-76
2021/03/28 00:19:33;;;;;;;17.80;7.40;;;6.00;99.90;;;;;;4138274;28;20382;-78
2021/03/28 00:21:48;;;;;;;26.65;8.23;;;6.00;99.90;;;;;;4164507;28;20029;-75
2021/03/28 00:23:55;;;;;;;17.85;7.15;;;6.10;99.90;;;;;;4162957;28;20804;-77
2021/03/28 00:26:16;;;;;;;18.10;7.22;;;6.10;99.90;;;;;;4164533;28;20512;-76
2021/03/28 00:28:44;;;;;;;18.95;8.10;;;6.10;99.90;;;;;;4164018;28;20508;-76
2021/03/28 00:30:45;;;;;;;17.58;7.95;;;6.20;99.90;;;;;;4154177;28;20108;-77
2021/03/28 00:32:57;;;;;;;16.27;8.50;;;6.30;99.90;;;;;;4161504;28;20026;-76
2021/03/28 00:35:08;;;;;;;22.20;10.05;;;6.40;99.90;;;;;;4140711;28;20031;-76
2021/03/28 00:37:09;;;;;;;23.88;7.57;;;6.40;99.90;;;;;;4161930;28;20079;-77
2021/03/28 00:39:14;;;;;;;20.27;8.50;;;6.40;99.90;;;;;;4150574;28;20091;-76
2021/03/28 00:41:22;;;;;;;22.30;7.65;;;6.40;99.90;;;;;;4162510;28;20376;-77
2021/03/28 00:43:23;;;;;;;18.30;7.60;;;6.40;99.90;;;;;;4162803;28;20047;-78
2021/03/28 00:45:44;;;;;;;19.33;6.70;;;6.40;99.90;;;;;;4163825;28;20112;-76
2021/03/28 00:48:01;;;;;;;22.90;7.20;;;6.40;99.90;;;;;;4146293;28;20034;-76
2021/03/28 00:50:08;;;;;;;12.70;7.18;;;6.50;99.90;;;;;;4163499;28;20121;-76
2021/03/28 00:52:17;;;;;;;18.00;8.00;;;6.50;99.90;;;;;;4140630;28;20113;-78
2021/03/28 00:54:23;;;;;;;21.73;7.85;;;6.50;99.90;;;;;;4152959;28;20037;-77
2021/03/28 00:56:40;;;;;;;17.35;6.93;;;6.50;99.90;;;;;;4141924;28;20601;-77
2021/03/28 00:59:02;;;;;;;14.77;6.68;;;6.50;99.90;;;;;;4163803;28;20029;-77
2021/03/28 01:01:23;;;;;;;19.40;7.65;;;6.50;99.90;;;;;;4163705;28;20096;-77
2021/03/28 01:04:07;;;;;;;23.60;7.60;;;6.50;99.90;;;;;;4157986;28;20369;-77
2021/03/28 01:06:30;;;;;;;21.55;7.75;;;6.50;99.90;;;;;;4137663;28;20030;-78
2021/03/28 01:08:58;;;;;;;20.10;7.13;;;6.50;99.90;;;;;;4163628;28;20030;-77
2021/03/28 01:11:11;;;;;;;19.80;7.75;;;6.40;99.90;;;;;;4159912;28;20030;-77
2021/03/28 01:13:31;;;;;;;18.95;7.82;;;6.40;99.90;;;;;;4156088;28;20057;-75
2021/03/28 01:15:50;;;;;;;19.33;7.43;;;6.40;99.90;;;;;;4138112;28;20045;-77
2021/03/28 01:17:56;;;;;;;20.60;7.95;;;6.30;99.90;;;;;;4153749;28;20101;-77
2021/03/28 01:20:11;;;;;;;18.92;7.93;;;6.30;99.90;;;;;;4129622;28;20438;-76
2021/03/28 01:22:29;;;;;;;24.63;8.18;;;6.30;99.90;;;;;;4150271;28;20030;-76
2021/03/28 01:24:44;;;;;;;25.60;7.82;;;6.30;99.90;;;;;;4163440;28;20492;-76
2021/03/28 01:26:59;;;;;;;24.25;9.15;;;6.20;99.90;;;;;;4141864;28;20120;-77
2021/03/28 01:29:16;;;;;;;27.70;9.57;;;6.10;99.90;;;;;;4135240;28;20076;-77
2021/03/28 01:31:19;;;;;;;21.35;7.68;;;6.10;99.90;;;;;;4159393;28;20037;-76
2021/03/28 01:33:26;;;;;;;;;;;6.10;99.90;;;;;;4141406;28;20026;-75
2021/03/28 01:35:38;;;;;;;16.15;8.55;;;6.10;99.90;;;;;;4138383;28;19914;-77
2021/03/28 01:38:15;;;;;;;21.60;9.23;;;6.10;99.90;;;;;;4140505;28;20030;-77
2021/03/28 01:40:27;;;;;;;38.40;10.18;;;6.10;99.90;;;;;;4109214;28;20025;-77
2021/03/28 01:42:42;;;;;;;27.05;8.65;;;6.10;99.90;;;;;;4156175;28;20034;-77
2021/03/28 01:44:52;;;;;;;22.90;9.35;;;6.10;99.90;;;;;;4144847;28;20489;-77
2021/03/28 01:46:56;;;;;;;30.67;9.75;;;6.10;99.90;;;;;;4152808;28;20042;-77
2021/03/28 01:49:17;;;;;;;21.80;8.95;;;6.10;99.90;;;;;;4135222;28;20035;-77
2021/03/28 01:51:33;;;;;;;19.42;9.35;;;6.10;99.90;;;;;;4146214;28;20088;-77
2021/03/28 01:53:55;;;;;;;25.00;8.20;;;6.10;99.90;;;;;;4150994;28;20139;-77
2021/03/28 01:56:27;;;;;;;23.38;9.25;;;6.00;99.90;;;;;;4162670;28;20033;-77
2021/03/28 01:59:02;;;;;;;23.08;10.73;;;6.00;99.90;;;;;;4136310;28;20116;-77
2021/03/28 02:01:18;;;;;;;27.00;8.50;;;6.00;99.90;;;;;;4162439;28;20030;-77
2021/03/28 02:03:38;;;;;;;18.27;9.20;;;6.00;99.90;;;;;;4150937;28;20033;-76
2021/03/28 02:05:47;;;;;;;18.75;9.68;;;6.00;99.90;;;;;;4162618;28;20034;-77
2021/03/28 02:08:10;;;;;;;25.05;7.80;;;6.10;99.90;;;;;;4162371;28;20064;-77
2021/03/28 02:10:13;;;;;;;21.38;7.97;;;6.10;99.90;;;;;;4152182;28;20026;-77
2021/03/28 02:12:17;;;;;;;24.90;9.18;;;6.10;99.90;;;;;;4145451;28;20334;-77
2021/03/28 02:14:46;;;;;;;23.38;7.05;;;6.10;99.90;;;;;;4162235;28;20105;-77
2021/03/28 02:17:20;;;;;;;18.90;7.28;;;6.20;99.90;;;;;;4154936;28;20480;-77
2021/03/28 02:19:25;;;;;;;20.65;9.52;;;6.20;99.90;;;;;;4153920;28;20037;-77
2021/03/28 02:22:00;;;;;;;27.15;7.05;;;6.20;99.90;;;;;;4161926;28;20049;-77
2021/03/28 02:24:20;;;;;;;;;;;6.30;99.90;;;;;;4152588;28;20532;-77
2021/03/28 02:26:47;;;;;;;16.23;7.03;;;6.30;99.90;;;;;;4162259;28;20035;-78
2021/03/28 02:28:47;;;;;;;21.88;6.60;;;6.20;99.90;;;;;;4158467;28;20025;-77
2021/03/28 02:31:01;;;;;;;18.45;6.78;;;6.20;99.90;;;;;;4144796;28;20026;-77
2021/03/28 02:33:17;;;;;;;16.70;5.32;;;6.30;99.90;;;;;;4162297;28;20120;-76
2021/03/28 02:35:41;;;;;;;18.80;5.88;;;6.30;99.90;;;;;;4158032;28;20029;-77
2021/03/28 02:37:48;;;;;;;13.27;5.72;;;6.40;99.90;;;;;;4139724;28;20029;-77
2021/03/28 02:40:12;;;;;;;18.23;5.40;;;6.40;99.90;;;;;;4160869;28;20542;-77
2021/03/28 02:42:13;;;;;;;;;;;6.40;99.90;;;;;;4152477;28;20064;-77
2021/03/28 02:44:36;;;;;;;17.00;5.93;;;6.40;99.90;;;;;;4144915;28;19913;-77
2021/03/28 02:46:46;;;;;;;12.27;5.82;;;6.40;99.90;;;;;;4131364;28;20087;-77
2021/03/28 02:49:02;;;;;;;19.33;7.75;;;6.40;99.90;;;;;;4151007;28;20496;-78
2021/03/28 02:51:32;;;;;;;16.38;6.05;;;6.40;99.90;;;;;;4157239;28;20029;-77
2021/03/28 02:54:10;;;;;;;12.20;5.25;;;6.40;99.90;;;;;;4155254;28;20040;-77
2021/03/28 02:56:23;;;;;;;14.63;4.72;;;6.30;99.90;;;;;;4159551;28;20424;-77
2021/03/28 02:58:38;;;;;;;15.85;5.15;;;6.30;99.90;;;;;;4152902;28;20520;-76
2021/03/28 03:00:59;;;;;;;16.65;5.43;;;6.30;99.90;;;;;;4160878;28;20048;-77
2021/03/28 03:03:16;;;;;;;16.67;4.88;;;6.30;99.90;;;;;;4141482;28;20037;-76
2021/03/28 03:05:43;;;;;;;17.38;6.45;;;6.20;99.90;;;;;;4142427;28;20034;-76
2021/03/28 03:08:10;;;;;;;11.27;5.50;;;6.10;99.90;;;;;;4151981;28;20044;-76
2021/03/28 03:10:32;;;;;;;20.25;5.43;;;6.10;99.90;;;;;;4149665;28;20030;-76
2021/03/28 03:12:41;;;;;;;20.08;6.03;;;6.10;99.90;;;;;;4143163;28;20037;-77
2021/03/28 03:15:00;;;;;;;17.60;5.05;;;6.10;99.90;;;;;;4164135;28;20041;-76
2021/03/28 03:17:22;;;;;;;24.45;5.97;;;6.10;99.90;;;;;;4137714;28;20030;-76
2021/03/28 03:19:52;;;;;;;25.77;6.40;;;6.20;99.90;;;;;;4147483;28;20420;-76
2021/03/28 03:22:08;;;;;;;20.17;5.30;;;6.20;99.90;;;;;;4165138;28;20123;-76
2021/03/28 03:24:48;;;;;;;18.77;6.78;;;6.20;99.90;;;;;;4163330;28;20033;-76
2021/03/28 03:27:19;;;;;;;17.95;5.05;;;6.20;99.90;;;;;;4144137;28;20038;-76
2021/03/28 03:29:48;;;;;;;20.15;5.70;;;6.10;99.90;;;;;;4148253;28;20025;-77
2021/03/28 03:32:10;;;;;;;22.60;5.53;;;6.10;99.90;;;;;;4142276;28;20034;-77
2021/03/28 03:34:32;;;;;;;18.00;6.78;;;6.10;99.90;;;;;;4155235;28;20116;-76
2021/03/28 03:36:42;;;;;;;15.80;5.43;;;6.10;99.90;;;;;;4144055;28;20044;-76
2021/03/28 03:39:08;;;;;;;14.43;4.50;;;6.10;99.90;;;;;;4164641;28;20037;-77
2021/03/28 03:41:21;;;;;;;26.45;7.60;;;6.00;99.90;;;;;;4140103;28;20109;-78
2021/03/28 03:43:52;;;;;;;20.48;6.18;;;6.10;99.90;;;;;;4164720;28;20041;-77
2021/03/28 03:46:02;;;;;;;19.65;6.03;;;6.10;99.90;;;;;;4160837;28;20034;-76
2021/03/28 03:48:28;;;;;;;14.15;5.60;;;6.20;99.90;;;;;;4143331;28;20040;-77
2021/03/28 03:50:31;;;;;;;15.80;5.03;;;6.20;99.90;;;;;;4145237;28;20416;-77
2021/03/28 03:52:42;;;;;;;14.05;5.85;;;6.20;99.90;;;;;;4163272;28;20086;-76
2021/03/28 03:55:06;;;;;;;16.92;6.50;;;6.20;99.90;;;;;;4164686;28;20041;-77
2021/03/28 03:57:45;;;;;;;16.17;5.53;;;6.20;99.90;;;;;;4160155;28;20519;-77
2021/03/28 04:00:12;;;;;;;16.30;5.38;;;6.20;99.90;;;;;;4117985;28;20091;-77
2021/03/28 04:02:45;;;;;;;14.48;5.03;;;6.20;99.90;;;;;;4161331;28;20044;-77
2021/03/28 04:05:05;;;;;;;15.60;5.50;;;6.30;99.90;;;;;;4151944;28;20040;-78
2021/03/28 04:07:25;;;;;;;21.77;6.00;;;6.30;99.90;;;;;;4163895;28;20037;-77
2021/03/28 04:10:03;;;;;;;20.77;5.70;;;6.30;99.90;;;;;;4156000;28;20071;-78
2021/03/28 04:13:01;;;;;;;20.15;5.90;;;6.30;99.90;;;;;;4146198;28;20030;-77
2021/03/28 04:15:35;;;;;;;16.50;4.63;;;6.30;99.90;;;;;;4096930;28;20038;-77
2021/03/28 04:17:52;;;;;;;15.27;5.72;;;6.30;99.90;;;;;;4158735;28;20041;-77
2021/03/28 04:20:16;;;;;;;11.70;4.78;;;6.30;99.90;;;;;;4164292;28;20030;-78
2021/03/28 04:22:30;;;;;;;13.38;4.93;;;6.40;99.90;;;;;;4152062;28;20061;-78
2021/03/28 04:24:37;;;;;;;16.30;5.97;;;6.40;99.90;;;;;;4162944;28;20037;-78
2021/03/28 04:27:07;;;;;;;14.57;5.22;;;6.30;99.90;;;;;;4164286;28;20481;-77
2021/03/28 04:29:11;;;;;;;17.65;6.22;;;6.20;99.90;;;;;;4152618;28;20540;-77
2021/03/28 04:31:38;;;;;;;10.93;5.43;;;6.20;99.90;;;;;;4154788;28;20024;-78
2021/03/28 04:33:47;;;;;;;15.25;6.60;;;6.20;99.90;;;;;;4159138;28;20029;-78
2021/03/28 04:36:40;;;;;;;12.43;4.63;;;6.10;99.90;;;;;;4152592;28;20025;-78
2021/03/28 04:39:02;;;;;;;11.90;4.45;;;6.10;99.90;;;;;;4140427;28;20034;-76
2021/03/28 04:41:50;;;;;;;18.20;6.72;;;6.10;99.90;;;;;;4147273;28;20022;-77
2021/03/28 04:44:16;;;;;;;19.33;5.43;;;6.10;99.90;;;;;;4069515;28;20044;-76
2021/03/28 04:46:34;;;;;;;15.68;5.30;;;6.10;99.90;;;;;;4153479;28;20022;-77
2021/03/28 04:48:51;;;;;;;19.77;6.05;;;6.00;99.90;;;;;;4162657;28;20159;-76
2021/03/28 04:51:32;;;;;;;16.23;5.35;;;6.00;99.90;;;;;;4160408;28;20025;-76
2021/03/28 04:53:47;;;;;;;18.10;5.43;;;6.10;99.90;;;;;;4146112;28;20022;-76
2021/03/28 04:56:04;;;;;;;16.85;5.60;;;6.20;99.90;;;;;;4163626;28;20033;-77
2021/03/28 04:58:37;;;;;;;16.02;4.43;;;6.20;99.90;;;;;;4154508;28;20034;-78
2021/03/28 05:00:52;;;;;;;13.15;5.40;;;6.20;99.90;;;;;;4105631;28;20173;-77
2021/03/28 05:03:03;;;;;;;13.10;4.40;;;6.20;99.90;;;;;;4145544;28;20034;-77
2021/03/28 05:05:32;;;;;;;13.32;5.57;;;6.20;99.90;;;;;;4163239;28;20033;-77
2021/03/28 05:08:04;;;;;;;23.50;6.05;;;6.20;99.90;;;;;;4158080;28;20029;-77
2021/03/28 05:10:26;;;;;;;14.75;5.93;;;6.30;99.90;;;;;;4163277;28;20105;-77
2021/03/28 05:12:27;;;;;;;18.75;5.75;;;6.30;99.90;;;;;;4140227;28;20072;-77
2021/03/28 05:15:02;;;;;;;14.05;5.22;;;6.30;99.90;;;;;;4157260;28;20033;-76
2021/03/28 05:17:02;;;;;;;12.20;5.57;;;6.30;99.90;;;;;;4153282;28;20037;-77
2021/03/28 05:19:24;;;;;;;11.35;5.63;;;6.30;99.90;;;;;;4163374;28;20076;-77
2021/03/28 05:21:53;;;;;;;17.52;6.65;;;6.40;99.90;;;;;;4162554;28;20079;-77
2021/03/28 05:24:15;;;;;;;15.43;5.20;;;6.40;99.90;;;;;;4151197;28;20204;-77
2021/03/28 05:26:53;;;;;;;13.85;5.50;;;6.50;99.90;;;;;;4158122;28;20041;-77
2021/03/28 05:29:18;;;;;;;17.92;5.13;;;6.50;99.90;;;;;;4145427;28;20456;-77
2021/03/28 05:31:28;;;;;;;12.13;4.88;;;6.60;99.90;;;;;;4162960;28;20028;-77
2021/03/28 05:33:54;;;;;;;9.88;4.97;;;6.60;99.90;;;;;;4163030;28;20396;-77
2021/03/28 05:36:14;;;;;;;12.82;5.50;;;6.60;99.90;;;;;;4154985;28;20029;-76
2021/03/28 05:38:56;;;;;;;17.77;5.13;;;6.60;99.90;;;;;;4162868;28;20061;-77
2021/03/28 05:41:10;;;;;;;16.08;4.95;;;6.70;99.90;;;;;;4121786;28;20030;-77
2021/03/28 05:43:32;;;;;;;15.63;5.28;;;6.70;99.90;;;;;;4156841;28;20064;-77
2021/03/28 05:45:47;;;;;;;17.50;5.22;;;6.80;99.90;;;;;;4158608;28;20045;-78
2021/03/28 05:48:04;;;;;;;15.45;4.38;;;6.80;99.90;;;;;;4145561;28;20037;-77
2021/03/28 05:50:10;;;;;;;14.10;5.50;;;7.00;99.90;;;;;;4155962;28;20038;-77
2021/03/28 05:52:49;;;;;;;15.65;5.18;;;7.00;99.90;;;;;;4163019;28;20025;-77
2021/03/28 05:55:20;;;;;;;10.98;4.93;;;7.10;99.90;;;;;;4145161;28;20038;-77
2021/03/28 05:57:36;;;;;;;23.95;5.60;;;7.10;99.90;;;;;;4138258;28;20441;-77
2021/03/28 06:00:02;;;;;;;14.40;4.70;;;7.20;99.90;;;;;;4157440;28;20037;-77
2021/03/28 06:02:39;;;;;;;11.02;4.97;;;7.30;99.90;;;;;;4137566;28;20022;-77
2021/03/28 06:05:13;;;;;;;20.55;5.70;;;7.40;99.90;;;;;;4158410;28;20365;-78
2021/03/28 06:07:51;;;;;;;12.80;5.32;;;7.40;99.90;;;;;;4131711;28;20042;-77
2021/03/28 06:09:58;;;;;;;10.70;5.60;;;7.50;99.90;;;;;;4150960;28;20108;-77
2021/03/28 06:12:21;;;;;;;13.88;4.57;;;7.50;99.90;;;;;;4147490;28;20030;-77
2021/03/28 06:14:25;;;;;;;12.93;4.90;;;7.60;99.90;;;;;;4161934;28;20144;-77
2021/03/28 06:16:34;;;;;;;;;;;7.20;99.90;;;;;;4162841;28;20484;-78
2021/03/28 06:18:38;;;;;;;22.08;7.10;;;7.50;99.90;;;;;;4148193;28;19921;-77
2021/03/28 06:20:53;;;;;;;12.23;4.50;;;7.50;99.90;;;;;;4162088;28;20029;-77
2021/03/28 06:23:25;;;;;;;12.43;4.80;;;7.40;99.90;;;;;;4144082;28;20057;-77
2021/03/28 06:25:45;;;;;;;10.60;5.03;;;7.40;99.90;;;;;;4151420;28;20041;-77
2021/03/28 06:28:17;;;;;;;13.57;5.07;;;7.40;99.90;;;;;;4162645;28;20148;-77
2021/03/28 06:30:46;;;;;;;15.73;5.10;;;7.40;99.90;;;;;;4144516;28;20030;-78
2021/03/28 06:33:11;;;;;;;14.32;5.43;;;7.30;99.90;;;;;;4131775;28;20042;-76
2021/03/28 06:36:11;;;;;;;12.45;4.85;;;7.40;99.90;;;;;;4158114;28;20037;-76
2021/03/28 06:38:22;;;;;;;12.57;4.88;;;7.40;99.90;;;;;;4076312;29;20044;-78
2021/03/28 06:40:42;;;;;;;13.77;5.47;;;7.30;99.90;;;;;;4080280;29;20159;-76
2021/03/28 06:43:07;;;;;;;11.93;5.38;;;7.30;99.90;;;;;;4091222;28;20112;-76
2021/03/28 06:45:29;;;;;;;9.18;4.45;;;7.30;99.90;;;;;;4138131;28;20042;-76
2021/03/28 06:47:55;;;;;;;15.30;5.65;;;7.20;99.90;;;;;;4161782;28;20042;-76
2021/03/28 06:50:40;;;;;;;14.05;5.35;;;7.20;99.90;;;;;;4154433;28;20037;-76
2021/03/28 06:53:03;;;;;;;9.10;4.72;;;7.20;99.90;;;;;;4153548;28;20037;-78
2021/03/28 06:55:20;;;;;;;10.20;4.35;;;7.20;99.90;;;;;;4161041;28;20424;-76
2021/03/28 06:57:49;;;;;;;11.13;4.78;;;7.30;99.90;;;;;;4144718;28;25692;-78
2021/03/28 07:00:30;;;;;;;11.90;5.15;;;7.40;99.90;;;;;;4144420;28;20061;-76
2021/03/28 07:02:52;;;;;;;12.98;5.20;;;7.50;99.90;;;;;;4144332;28;20048;-76
2021/03/28 07:05:08;;;;;;;14.02;6.07;;;7.80;99.90;;;;;;4143666;28;20030;-76
2021/03/28 07:07:27;;;;;;;13.90;4.97;;;8.10;99.90;;;;;;4144484;28;20522;-76
2021/03/28 07:09:58;;;;;;;13.05;4.82;;;8.20;99.90;;;;;;4160325;28;20095;-76
2021/03/28 07:12:17;;;;;;;18.88;5.47;;;8.30;99.90;;;;;;4158611;28;20033;-76
2021/03/28 07:14:32;;;;;;;15.95;5.20;;;8.40;99.90;;;;;;4158818;28;20084;-76
2021/03/28 07:16:53;;;;;;;14.85;5.55;;;8.50;99.90;;;;;;4143383;28;20037;-76
2021/03/28 07:19:24;;;;;;;11.95;5.20;;;8.50;99.90;;;;;;4143170;28;20037;-76
2021/03/28 07:21:53;;;;;;;15.95;4.90;;;8.60;99.90;;;;;;4161498;28;20037;-77
2021/03/28 07:24:05;;;;;;;8.77;4.53;;;8.60;99.90;;;;;;4161251;28;20390;-77
2021/03/28 07:26:31;;;;;;;9.85;4.95;;;8.60;99.90;;;;;;4159798;28;20021;-77
2021/03/28 07:29:09;;;;;;;10.68;5.32;;;8.60;99.90;;;;;;4160581;28;20032;-76
2021/03/28 07:31:47;;;;;;;13.50;5.85;;;8.70;99.90;;;;;;4160368;28;20041;-77
2021/03/28 07:34:26;;;;;;;12.18;6.32;;;8.80;99.90;;;;;;4142078;28;20392;-77
2021/03/28 07:36:57;;;;;;;8.80;4.53;;;9.00;99.90;;;;;;4141994;28;20061;-76
2021/03/28 07:39:46;;;;;;;10.25;4.75;;;9.30;99.90;;;;;;4159917;28;20096;-77
2021/03/28 07:42:11;;;;;;;16.35;4.88;;;9.40;99.90;;;;;;4139117;28;20468;-75
2021/03/28 07:44:45;;;;;;;8.80;5.15;;;9.50;99.90;;;;;;4137328;28;20030;-77
2021/03/28 07:47:33;;;;;;;11.85;4.85;;;9.30;99.90;;;;;;4162527;28;20026;-76
2021/03/28 07:49:47;;;;;;;15.18;5.78;;;9.20;99.90;;;;;;4163332;28;20033;-77
2021/03/28 07:52:49;;;;;;;14.10;4.47;;;9.20;99.90;;;;;;4162584;28;20036;-76
2021/03/28 07:55:27;;;;;;;11.73;5.63;;;9.30;99.90;;;;;;4084314;28;20229;-77
2021/03/28 07:57:34;;;;;;;13.43;5.65;;;9.30;99.90;;;;;;4149683;28;20359;-76
2021/03/28 07:59:55;;;;;;;12.18;5.65;;;9.40;99.90;;;;;;4145856;28;20491;-77
2021/03/28 08:02:21;;;;;;;8.27;4.65;;;9.50;99.90;;;;;;4138291;28;20092;-77
2021/03/28 08:04:36;;;;;;;17.10;5.78;;;9.60;99.90;;;;;;4163179;28;20132;-76
2021/03/28 08:06:56;;;;;;;17.33;6.68;;;9.60;99.90;;;;;;4163691;28;20057;-76
2021/03/28 08:09:26;;;;;;;13.80;5.85;;;9.60;99.90;;;;;;4144964;28;20075;-76
2021/03/28 08:11:54;;;;;;;11.73;5.70;;;9.70;99.90;;;;;;4144391;28;20128;-77
2021/03/28 08:14:28;;;;;;;13.88;5.40;;;9.80;99.90;;;;;;4163033;28;20451;-77
2021/03/28 08:17:10;;;;;;;10.32;5.25;;;9.90;99.90;;;;;;4162558;28;20053;-77
2021/03/28 08:19:52;;;;;;;14.57;4.82;;;10.10;99.90;;;;;;4162187;28;20400;-76
2021/03/28 08:22:16;;;;;;;13.27;5.65;;;10.30;99.90;;;;;;4159897;28;20389;-76
2021/03/28 08:25:13;;;;;;;14.60;5.13;;;10.40;99.90;;;;;;4143315;28;20054;-75
2021/03/28 08:27:26;;;;;;;9.13;4.68;;;10.60;99.90;;;;;;4163419;28;20042;-75
2021/03/28 08:29:38;;;;;;;15.35;5.72;;;10.80;99.90;;;;;;4163793;28;20036;-76
2021/03/28 08:32:00;;;;;;;14.75;5.82;;;11.10;99.90;;;;;;4163485;28;20494;-76
2021/03/28 08:34:19;;;;;;;13.43;5.55;;;11.40;99.90;;;;;;4163456;28;20038;-75
2021/03/28 08:36:44;;;;;;;12.93;5.63;;;11.60;99.90;;;;;;4151090;28;20041;-76
2021/03/28 08:38:58;;;;;;;12.85;4.55;;;11.70;99.90;;;;;;4137434;28;20035;-76
2021/03/28 08:41:37;;;;;;;12.93;5.05;;;11.70;99.90;;;;;;4132598;28;20034;-76
2021/03/28 08:44:11;;;;;;;12.95;5.20;;;11.70;99.90;;;;;;4151537;28;20069;-76
2021/03/28 08:46:27;;;;;;;;;;;11.80;99.90;;;;;;4134275;28;20044;-76
2021/03/28 08:49:21;;;;;;;12.55;4.68;;;11.90;99.90;;;;;;4162003;28;20362;-76
2021/03/28 08:52:13;;;;;;;14.07;5.40;;;12.00;99.90;;;;;;4085550;28;20042;-76
2021/03/28 08:54:34;;;;;;;14.15;6.05;;;11.80;99.90;;;;;;4147444;28;20030;-76
2021/03/28 08:56:53;;;;;;;14.00;4.43;;;11.80;99.90;;;;;;4161189;28;20030;-76
2021/03/28 08:59:23;;;;;;;12.48;5.20;;;11.80;99.90;;;;;;4160561;28;20112;-77
2021/03/28 09:01:39;;;;;;;10.98;5.03;;;11.90;99.90;;;;;;4150301;28;20036;-76
2021/03/28 09:03:53;;;;;;;13.43;5.65;;;11.90;99.90;;;;;;4145749;28;20034;-76
2021/03/28 09:06:05;;;;;;;13.18;5.93;;;11.80;99.90;;;;;;4160179;28;20112;-76
2021/03/28 09:08:22;;;;;;;12.57;5.38;;;11.80;99.90;;;;;;4158516;28;20044;-77
2021/03/28 09:10:50;;;;;;;27.45;15.15;;;11.80;99.90;;;;;;4144479;28;20038;-77
2021/03/28 09:12:54;;;;;;;20.92;10.18;;;12.00;99.90;;;;;;4164485;28;20029;-77
2021/03/28 09:15:20;;;;;;;17.05;4.90;;;12.00;99.90;;;;;;4158973;28;20025;-77
2021/03/28 09:17:50;;;;;;;16.60;7.75;;;12.10;99.90;;;;;;4163291;28;20046;-77
2021/03/28 09:20:18;;;;;;;10.65;5.68;;;12.10;99.90;;;;;;4137843;28;20539;-78
2021/03/28 09:22:34;;;;;;;11.68;4.55;;;11.90;99.90;;;;;;4143007;28;20113;-78
2021/03/28 09:25:14;;;;;;;6.93;3.83;;;12.10;99.90;;;;;;4144155;28;20038;-79
2021/03/28 09:27:32;;;;;;;10.00;5.05;;;12.30;99.90;;;;;;4126554;28;20501;-79
2021/03/28 09:29:47;;;;;;;12.40;4.90;;;12.50;99.90;;;;;;4144683;28;20575;-79
2021/03/28 09:32:08;;;;;;;8.85;4.25;;;12.70;99.90;;;;;;4161536;28;20163;-79
2021/03/28 09:34:45;;;;;;;15.57;4.75;;;12.80;99.90;;;;;;4163089;28;20040;-79
2021/03/28 09:36:46;;;;;;;10.55;4.50;;;12.70;99.90;;;;;;4165566;28;20037;-79
2021/03/28 09:38:52;;;;;;;11.65;4.82;;;12.70;99.90;;;;;;4144584;28;20038;-78
2021/03/28 09:41:04;;;;;;;11.65;4.40;;;12.70;99.90;;;;;;4142827;28;20036;-78
2021/03/28 09:43:37;;;;;;;11.88;4.43;;;12.70;99.90;;;;;;4165105;28;20100;-79
2021/03/28 09:46:01;;;;;;;21.17;5.25;;;13.00;99.90;;;;;;4123528;28;20042;-76
2021/03/28 09:48:21;;;;;;;13.05;4.13;;;13.40;99.90;;;;;;4163079;28;20030;-76
2021/03/28 09:50:52;;;;;;;15.32;5.25;;;13.60;99.90;;;;;;4146490;28;20096;-80
2021/03/28 09:53:20;;;;;;;12.35;3.90;;;13.30;99.90;;;;;;4139102;28;20044;-79
2021/03/28 09:55:47;;;;;;;10.73;3.97;;;13.50;99.90;;;;;;4161308;28;20106;-79
2021/03/28 09:58:06;;;;;;;14.90;4.95;;;13.50;99.90;;;;;;4146975;28;20394;-79
2021/03/28 10:00:30;;;;;;;6.07;3.13;;;13.50;99.90;;;;;;4146657;28;20032;-80
2021/03/28 10:03:18;;;;;;;6.22;3.33;;;13.30;99.90;;;;;;4154441;28;20034;-78
2021/03/28 10:05:26;;;;;;;8.30;2.78;;;13.30;99.90;;;;;;4155488;28;20029;-80
2021/03/28 10:07:41;;;;;;;10.25;3.80;;;13.40;99.90;;;;;;4156447;28;20048;-81
2021/03/28 10:09:53;;;;;;;7.78;4.00;;;13.40;99.90;;;;;;4162542;28;20033;-79
2021/03/28 10:11:59;;;;;;;11.70;3.00;;;13.50;99.90;;;;;;4161290;28;20034;-79
2021/03/28 10:14:03;;;;;;;7.30;3.03;;;13.50;99.90;;;;;;4142974;28;20531;-79
2021/03/28 10:16:17;;;;;;;9.35;4.35;;;13.30;99.90;;;;;;4160467;28;20578;-78
2021/03/28 10:18:47;;;;;;;7.90;3.63;;;13.50;99.90;;;;;;4148659;28;20567;-79
2021/03/28 10:20:50;;;;;;;7.07;2.80;;;13.50;99.90;;;;;;4133156;28;20037;-79
2021/03/28 10:23:00;;;;;;;10.38;5.50;;;13.60;99.90;;;;;;4142205;28;20041;-79
2021/03/28 10:25:25;;;;;;;10.23;3.50;;;13.50;99.90;;;;;;4142435;28;20042;-79
2021/03/28 10:27:56;;;;;;;8.93;3.42;;;13.80;99.90;;;;;;4152478;28;20029;-80
2021/03/28 10:30:30;;;;;;;10.65;4.22;;;13.30;99.90;;;;;;4145530;28;20103;-80
2021/03/28 10:32:52;;;;;;;8.68;3.47;;;12.90;99.90;;;;;;4154152;28;20037;-80
2021/03/28 10:35:08;;;;;;;11.70;3.85;;;12.20;99.90;;;;;;4163495;28;20033;-80
2021/03/28 10:37:21;;;;;;;9.57;3.83;;;12.50;99.90;;;;;;4156157;28;20093;-80
2021/03/28 10:39:39;;;;;;;11.70;3.38;;;12.30;99.90;;;;;;4140484;28;20046;-79
2021/03/28 10:41:43;;;;;;;6.72;3.55;;;12.20;99.90;;;;;;4142345;28;20061;-80
2021/03/28 10:43:53;;;;;;;;;;;12.40;99.90;;;;;;4137666;28;20038;-79
2021/03/28 10:46:24;;;;;;;7.38;3.70;;;12.60;99.90;;;;;;4156868;28;20359;-81
2021/03/28 10:49:01;;;;;;;8.32;3.35;;;12.60;99.90;;;;;;4163094;28;20049;-80
2021/03/28 10:51:39;;;;;;;11.07;3.40;;;12.70;99.90;;;;;;4139278;28;20034;-81
2021/03/28 10:53:40;;;;;;;10.63;3.70;;;12.80;99.90;;;;;;4147978;28;20085;-80
2021/03/28 10:56:00;;;;;;;10.20;4.80;;;12.60;99.90;;;;;;4142540;28;20347;-80
2021/03/28 10:58:34;;;;;;;8.35;3.83;;;12.60;99.90;;;;;;4144141;28;20062;-79
2021/03/28 11:01:14;;;;;;;9.32;3.58;;;12.40;99.90;;;;;;4138494;28;20118;-79
2021/03/28 11:03:32;;;;;;;8.35;3.63;;;12.20;99.90;;;;;;4145380;28;20420;-80
2021/03/28 11:05:38;;;;;;;12.68;4.25;;;11.90;99.90;;;;;;4160590;28;20052;-81
2021/03/28 11:08:06;;;;;;;11.55;4.10;;;11.80;99.90;;;;;;4145427;28;20038;-80
2021/03/28 11:10:13;;;;;;;9.43;4.70;;;11.70;99.90;;;;;;4131646;28;20057;-79
2021/03/28 11:12:51;;;;;;;11.48;4.00;;;11.60;99.90;;;;;;4131839;28;20026;-81
2021/03/28 11:15:28;;;;;;;10.15;3.50;;;11.40;99.90;;;;;;4142812;28;20424;-80
2021/03/28 11:17:51;;;;;;;8.18;4.25;;;11.40;99.90;;;;;;4118291;28;20048;-81
2021/03/28 11:20:09;;;;;;;7.68;3.50;;;11.30;99.90;;;;;;4165975;28;20033;-80
2021/03/28 11:22:19;;;;;;;10.75;3.90;;;11.20;99.90;;;;;;4142331;28;20046;-79
2021/03/28 11:24:38;;;;;;;9.07;3.97;;;11.10;99.90;;;;;;4145079;28;20136;-78
2021/03/28 11:27:07;;;;;;;16.83;3.88;;;11.10;99.90;;;;;;4147284;28;20105;-78
2021/03/28 11:29:23;;;;;;;11.07;4.80;;;11.10;99.90;;;;;;4162618;28;20037;-78
2021/03/28 11:31:26;;;;;;;15.02;4.35;;;11.00;99.90;;;;;;4164154;28;20087;-79
2021/03/28 11:33:37;;;;;;;16.67;4.70;;;11.00;99.90;;;;;;4158566;28;20062;-78
2021/03/28 11:36:04;;;;;;;13.07;4.60;;;11.10;99.90;;;;;;4162312;28;20508;-78
2021/03/28 11:38:17;;;;;;;11.48;3.72;;;11.20;99.90;;;;;;4164864;28;20080;-79
2021/03/28 11:40:17;;;;;;;11.95;4.13;;;11.20;99.90;;;;;;4148902;28;20049;-78
2021/03/28 11:42:25;;;;;;;11.32;3.45;;;11.10;99.90;;;;;;4148566;28;20037;-78
2021/03/28 11:44:31;;;;;;;7.00;3.67;;;11.10;99.90;;;;;;4148635;28;20034;-78
2021/03/28 11:46:38;;;;;;;13.35;3.80;;;11.20;99.90;;;;;;4145531;28;20063;-79
2021/03/28 11:49:02;;;;;;;13.30;4.10;;;11.30;99.90;;;;;;4147812;28;20677;-79
2021/03/28 11:51:18;;;;;;;8.38;3.72;;;11.40;99.90;;;;;;4146201;28;20105;-78
2021/03/28 11:53:25;;;;;;;13.43;4.00;;;11.70;99.90;;;;;;4165063;28;20033;-79
2021/03/28 11:55:25;;;;;;;9.52;3.50;;;11.90;99.90;;;;;;4144167;28;20113;-77
2021/03/28 11:57:33;;;;;;;11.65;3.78;;;11.90;99.90;;;;;;4163687;28;20056;-78
2021/03/28 11:59:43;;;;;;;7.80;3.72;;;12.00;99.90;;;;;;4162655;28;20159;-78
2021/03/28 12:01:59;;;;;;;11.40;3.95;;;11.90;99.90;;;;;;4146872;28;20552;-80
2021/03/28 12:04:23;;;;;;;9.98;3.97;;;12.00;99.90;;;;;;4164934;28;20068;-80
2021/03/28 12:06:23;;;;;;;13.85;5.35;;;11.90;99.90;;;;;;4165051;28;20041;-79
2021/03/28 12:08:29;;;;;;;10.13;4.53;;;11.90;99.90;;;;;;4165747;28;20018;-80
2021/03/28 12:10:36;;;;;;;13.10;3.88;;;12.10;99.90;;;;;;4164122;28;20033;-80
2021/03/28 12:12:40;;;;;;;11.88;4.43;;;12.20;99.90;;;;;;4150203;28;20448;-80